Time;durP1;ratioP1;P1;durP2;ratioP2;P2;SDS_P1;SDS_P2;PMS_P1;PMS_P2;Temp;Humidity;BMP_temperature;BMP_pressure;BME280_temperature;BME280_humidity;BME280_pressure;Samples;Min_cycle;Max_cycle;Signal;HPM_P1;HPM_P2
2021/06/21 00:00:22;;;;;;;14.02;7.05;;;;;;;17.71;100.00;97082.66;5032145;28;20126;-76
2021/06/21 00:02:47;;;;;;;13.48;6.40;;;;;;;17.77;100.00;97089.31;5048799;28;20108;-75
2021/06/21 00:05:15;;;;;;;14.77;6.97;;;;;;;17.60;100.00;97058.47;5032174;28;20108;-74
2021/06/21 00:07:40;;;;;;;19.40;7.10;;;;;;;17.78;100.00;97078.31;5048542;28;20053;-75
2021/06/21 00:10:07;;;;;;;17.13;6.90;;;;;;;17.66;100.00;97063.28;5031961;28;20060;-75
2021/06/21 00:12:34;;;;;;;18.80;7.10;;;;;;;17.51;100.00;97043.13;5032437;28;20030;-75
2021/06/21 00:14:59;;;;;;;14.30;6.55;;;;;;;17.51;100.00;97064.75;5048125;28;20021;-75
2021/06/21 00:17:25;;;;;;;11.52;6.88;;;;;;;17.43;100.00;97064.66;5031608;28;20086;-75
2021/06/21 00:19:50;;;;;;;14.05;6.80;;;;;;;17.40;100.00;97062.25;5048391;28;20037;-74
2021/06/21 00:22:18;;;;;;;12.43;6.55;;;;;;;17.15;100.00;97020.53;5031862;28;20437;-75
2021/06/21 00:24:44;;;;;;;13.00;7.50;;;;;;;17.25;100.00;97042.13;5032716;28;20037;-75
2021/06/21 00:27:10;;;;;;;13.05;6.82;;;;;;;17.26;100.00;97038.41;5048300;28;20032;-75
2021/06/21 00:29:35;;;;;;;13.65;6.80;;;;;;;17.40;100.00;97046.03;5048004;28;20053;-75
2021/06/21 00:32:01;;;;;;;10.38;6.55;;;;;;;17.41;100.00;97044.19;5032765;28;20029;-75
2021/06/21 00:34:26;;;;;;;9.15;6.68;;;;;;;17.54;100.00;97066.31;5032572;28;20036;-75
2021/06/21 00:36:52;;;;;;;12.00;6.47;;;;;;;17.56;100.00;97072.47;5048233;28;20098;-74
2021/06/21 00:39:18;;;;;;;7.85;6.05;;;;;;;17.56;100.00;97057.09;5031515;28;20049;-75
2021/06/21 00:41:43;;;;;;;15.05;6.85;;;;;;;17.55;100.00;97051.81;5031288;28;20040;-75
2021/06/21 00:44:09;;;;;;;16.00;6.60;;;;;;;17.59;100.00;97061.34;5032463;28;20025;-75
2021/06/21 00:46:35;;;;;;;17.58;7.07;;;;;;;17.65;100.00;97058.91;5032262;28;20040;-75
2021/06/21 00:49:00;;;;;;;9.98;6.35;;;;;;;17.70;100.00;97078.22;5047875;28;20032;-75
2021/06/21 00:51:27;;;;;;;12.15;6.70;;;;;;;17.74;100.00;97076.09;5047876;28;20033;-76
2021/06/21 00:53:53;;;;;;;12.35;6.75;;;;;;;17.64;100.00;97065.31;5031120;28;20479;-75
2021/06/21 00:56:19;;;;;;;11.50;7.18;;;;;;;17.76;100.00;97074.91;5047724;28;20030;-75
2021/06/21 00:58:44;;;;;;;12.10;6.68;;;;;;;17.78;100.00;97072.91;5047407;28;20057;-75
2021/06/21 01:01:10;;;;;;;11.23;6.72;;;;;;;17.81;100.00;97072.59;5047656;28;20095;-75
2021/06/21 01:03:36;;;;;;;10.10;6.43;;;;;;;17.80;100.00;97076.34;5047515;28;20468;-75
2021/06/21 01:06:02;;;;;;;9.25;5.80;;;;;;;17.68;100.00;97061.31;5032164;28;20048;-75
2021/06/21 01:08:28;;;;;;;10.02;6.00;;;;;;;17.71;100.00;97060.16;5030768;28;20041;-75
2021/06/21 01:10:56;;;;;;;14.90;6.30;;;;;;;17.77;100.00;97062.25;5047293;28;20029;-75
2021/06/21 01:13:41;;;;;;;11.90;5.97;;;;;;;17.71;100.00;97046.63;5047206;28;20036;-75
2021/06/21 01:16:32;;;;;;;16.65;6.82;;;;;;;17.80;100.00;97060.09;5047263;28;20492;-74
2021/06/21 01:19:22;;;;;;;11.07;6.25;;;;;;;17.76;100.00;97064.09;5023924;28;20025;-75
2021/06/21 01:22:25;;;;;;;11.07;6.63;;;;;;;17.67;100.00;97059.59;5031668;28;20480;-75
2021/06/21 01:25:15;;;;;;;9.55;6.20;;;;;;;17.58;100.00;97049.69;5031696;28;20132;-75
2021/06/21 01:28:22;;;;;;;13.25;6.32;;;;;;;17.47;100.00;97060.69;5031630;28;20107;-76
2021/06/21 01:31:12;;;;;;;19.17;6.65;;;;;;;17.42;100.00;97057.56;5017998;28;20033;-75
2021/06/21 01:33:39;;;;;;;9.38;6.47;;;;;;;17.34;100.00;97063.72;5031657;28;20064;-74
2021/06/21 01:36:07;;;;;;;10.05;6.00;;;;;;;17.32;100.00;97067.53;5047013;28;20033;-75
2021/06/21 01:38:36;;;;;;;11.82;6.50;;;;;;;17.29;100.00;97068.69;5047041;28;20412;-75
2021/06/21 01:41:04;;;;;;;15.80;8.00;;;;;;;17.24;100.00;97062.91;5046961;28;20480;-75
2021/06/21 01:43:33;;;;;;;8.85;6.57;;;;;;;17.18;100.00;97058.09;5046965;28;20029;-75
2021/06/21 01:46:03;;;;;;;24.45;7.53;;;;;;;17.12;100.00;97060.50;5031148;28;20025;-75
2021/06/21 01:48:29;;;;;;;16.65;7.93;;;;;;;16.93;100.00;97053.31;5046900;28;20040;-75
2021/06/21 01:50:57;;;;;;;16.60;7.35;;;;;;;16.90;100.00;97055.44;5046653;28;20033;-75
2021/06/21 01:53:25;;;;;;;14.57;7.53;;;;;;;16.71;100.00;97032.03;5030195;28;20424;-75
2021/06/21 01:56:13;;;;;;;22.08;8.73;;;;;;;16.77;100.00;97043.13;5046685;28;20100;-75
2021/06/21 01:58:39;;;;;;;13.68;7.78;;;;;;;16.76;100.00;97046.81;5046738;28;20477;-74
2021/06/21 02:01:14;;;;;;;15.35;7.93;;;;;;;16.84;100.00;97058.75;5046739;28;20025;-75
2021/06/21 02:03:43;;;;;;;19.83;8.95;;;;;;;16.73;100.00;97048.97;5045937;28;20047;-74
2021/06/21 02:06:08;;;;;;;11.73;7.50;;;;;;;16.75;100.00;97061.31;5046574;28;20499;-74
2021/06/21 02:08:34;;;;;;;15.60;8.13;;;;;;;16.74;100.00;97056.06;5046653;28;20029;-74
2021/06/21 02:10:59;;;;;;;14.27;7.32;;;;;;;16.84;100.00;97066.84;5046460;28;20029;-74
2021/06/21 02:13:25;;;;;;;13.80;6.88;;;;;;;16.84;100.00;97056.91;5046596;28;20029;-75
2021/06/21 02:15:54;;;;;;;15.07;7.15;;;;;;;16.77;100.00;97053.91;5031321;28;20041;-75
2021/06/21 02:18:20;;;;;;;18.65;7.55;;;;;;;16.78;100.00;97054.78;5046691;28;20421;-74
2021/06/21 02:20:47;;;;;;;18.88;7.80;;;;;;;16.64;100.00;97037.16;5046451;28;20033;-75
2021/06/21 02:23:15;;;;;;;17.77;7.97;;;;;;;16.74;100.00;97054.22;5046532;28;20091;-75
2021/06/21 02:25:41;;;;;;;19.40;7.35;;;;;;;16.60;100.00;97037.63;5029692;28;20132;-74
2021/06/21 02:28:06;;;;;;;14.55;6.90;;;;;;;16.57;100.00;97032.50;5029584;28;20072;-74
2021/06/21 02:30:34;;;;;;;13.65;6.97;;;;;;;16.62;100.00;97039.16;5046211;28;20561;-75
2021/06/21 02:33:00;;;;;;;22.10;6.40;;;;;;;16.52;100.00;97027.50;5029477;28;20429;-75
2021/06/21 02:35:26;;;;;;;16.98;6.38;;;;;;;16.57;100.00;97040.59;5046224;28;20029;-74
2021/06/21 02:37:52;;;;;;;13.48;6.30;;;;;;;16.57;100.00;97051.41;5049524;28;20090;-75
2021/06/21 02:40:18;;;;;;;12.90;6.68;;;;;;;16.35;100.00;97014.72;5034896;28;20136;-75
2021/06/21 02:42:44;;;;;;;11.88;5.97;;;;;;;16.50;100.00;97040.28;5050270;28;20105;-75
2021/06/21 02:45:10;;;;;;;9.65;6.78;;;;;;;16.52;100.00;97040.16;5049868;28;20462;-74
2021/06/21 02:47:36;;;;;;;10.48;6.35;;;;;;;16.44;100.00;97027.38;5033424;28;20091;-74
2021/06/21 02:50:03;;;;;;;10.38;6.10;;;;;;;16.47;100.00;97037.88;5049816;28;20118;-75
2021/06/21 02:52:35;;;;;;;9.20;5.95;;;;;;;16.45;100.00;97039.88;5033281;28;20528;-74
2021/06/21 02:55:15;;;;;;;8.90;5.53;;;;;;;16.50;100.00;97044.84;5049787;28;20025;-75
2021/06/21 02:58:01;;;;;;;18.25;5.75;;;;;;;16.51;100.00;97052.81;5033133;28;20040;-75
2021/06/21 03:00:28;;;;;;;9.32;5.45;;;;;;;16.52;100.00;97048.25;5034818;28;20120;-75
2021/06/21 03:02:55;;;;;;;14.10;6.18;;;;;;;16.49;100.00;97052.06;5050090;28;20420;-75
2021/06/21 03:05:21;;;;;;;16.08;6.57;;;;;;;16.40;100.00;97034.03;5049899;28;20025;-75
2021/06/21 03:07:49;;;;;;;11.35;6.30;;;;;;;16.46;100.00;97046.97;5049820;28;20408;-74
2021/06/21 03:10:15;;;;;;;12.65;6.68;;;;;;;16.50;100.00;97056.50;5049691;28;20021;-74
2021/06/21 03:12:42;;;;;;;19.13;7.53;;;;;;;16.61;100.00;97058.22;5033036;28;20116;-75
2021/06/21 03:15:08;;;;;;;14.32;7.20;;;;;;;16.67;100.00;97058.47;5049463;28;20450;-74
2021/06/21 03:17:35;;;;;;;18.35;6.72;;;;;;;16.73;100.00;97046.28;5034184;28;20021;-75
2021/06/21 03:20:01;;;;;;;19.77;10.07;;;;;;;16.75;100.00;97045.13;5049469;28;20112;-75
2021/06/21 03:22:27;;;;;;;38.05;17.98;;;;;;;16.91;100.00;97059.88;5034096;28;20032;-74
2021/06/21 03:24:54;;;;;;;35.38;12.55;;;;;;;17.02;100.00;97056.97;5034023;28;20029;-75
2021/06/21 03:27:30;;;;;;;17.35;7.65;;;;;;;17.08;100.00;97040.19;5032571;28;20047;-74
2021/06/21 03:29:56;;;;;;;12.45;6.53;;;;;;;17.17;100.00;97039.28;5049394;28;20045;-75
2021/06/21 03:32:26;;;;;;;8.68;5.43;;;;;;;17.17;100.00;97052.81;5049502;28;20029;-74
2021/06/21 03:34:53;;;;;;;19.23;5.65;;;;;;;17.19;100.00;97031.91;5032659;28;20413;-75
2021/06/21 03:37:19;;;;;;;10.15;5.20;;;;;;;17.35;100.00;97038.38;5049083;28;20104;-74
2021/06/21 03:39:44;;;;;;;15.02;5.30;;;;;;;17.46;100.00;97026.50;5049082;28;20125;-75
2021/06/21 03:42:10;;;;;;;14.05;5.63;;;;;;;17.62;100.00;97050.25;5033576;28;20033;-75
2021/06/21 03:44:36;;;;;;;14.63;5.82;;;;;;;17.73;100.00;97055.44;5033694;28;20053;-74
2021/06/21 03:47:01;;;;;;;18.10;5.78;;;;;;;17.96;100.00;97069.41;5048711;28;20028;-75
2021/06/21 03:49:27;;;;;;;16.25;6.78;;;;;;;17.97;100.00;97039.47;5048063;28;20493;-75
2021/06/21 03:51:53;;;;;;;9.27;6.38;;;;;;;18.27;100.00;97068.88;5049054;28;20095;-75
2021/06/21 03:54:18;;;;;;;15.02;7.13;;;;;;;18.36;100.00;97067.94;5033286;28;20033;-75
2021/06/21 03:56:44;;;;;;;21.85;7.60;;;;;;;18.35;100.00;97043.75;5033527;28;20021;-75
2021/06/21 03:59:09;;;;;;;20.45;7.53;;;;;;;18.62;100.00;97078.03;5048643;28;20029;-74
2021/06/21 04:01:35;;;;;;;20.23;8.43;;;;;;;18.61;100.00;97076.34;5048827;28;20104;-75
2021/06/21 04:04:01;;;;;;;26.98;7.80;;;;;;;18.58;100.00;97077.47;5031994;28;20120;-75
2021/06/21 04:06:27;;;;;;;23.25;7.53;;;;;;;18.62;100.00;97072.63;5048357;28;20087;-75
2021/06/21 04:08:53;;;;;;;16.42;8.10;;;;;;;18.58;100.00;97077.47;5048631;28;20033;-75
2021/06/21 04:11:18;;;;;;;18.30;7.15;;;;;;;18.45;100.00;97074.31;5033134;28;20038;-75
2021/06/21 04:13:44;;;;;;;15.48;7.18;;;;;;;18.42;100.00;97075.47;5033233;28;20021;-75
2021/06/21 04:16:09;;;;;;;17.17;6.68;;;;;;;18.44;100.00;97075.31;5032990;28;20021;-74
2021/06/21 04:18:35;;;;;;;18.80;9.90;;;;;;;18.29;100.00;97066.88;5031745;28;20030;-74
2021/06/21 04:21:00;;;;;;;18.20;6.18;;;;;;;18.17;100.00;97056.44;5048189;28;20071;-75
2021/06/21 04:23:26;;;;;;;9.93;5.60;;;;;;;18.34;100.00;97086.22;5033371;28;20026;-74
2021/06/21 04:25:52;;;;;;;17.23;6.05;;;;;;;18.40;100.00;97085.59;5032953;28;20025;-76
2021/06/21 04:28:17;;;;;;;17.08;5.90;;;;;;;18.35;100.00;97066.25;5048256;28;20044;-75
2021/06/21 04:30:45;;;;;;;11.60;5.00;;;;;;;18.47;100.00;97079.56;5031644;28;20032;-75
2021/06/21 04:33:11;;;;;;;14.20;9.48;;;;;;;18.64;100.00;97076.84;5047723;28;20124;-75
2021/06/21 04:35:36;;;;;;;16.50;6.88;;;;;;;18.80;100.00;97079.72;5033899;28;20109;-84
2021/06/21 04:38:02;;;;;;;15.70;7.05;;;;;;;18.97;100.00;97093.41;5046104;28;20033;-76
2021/06/21 04:40:31;;;;;;;14.65;5.60;;;;;;;19.16;100.00;97088.63;5030816;28;20049;-77
2021/06/21 04:42:56;;;;;;;36.05;24.77;;;;;;;19.25;100.00;97092.25;5045670;28;20456;-76
2021/06/21 04:45:22;;;;;;;10.98;5.88;;;;;;;19.07;100.00;97078.75;5031067;28;20071;-76
2021/06/21 04:47:48;;;;;;;11.75;5.05;;;;;;;19.24;100.00;97095.97;5047838;28;20404;-76
2021/06/21 04:50:16;;;;;;;13.65;6.93;;;;;;;19.43;100.00;97107.50;5048207;28;20026;-77
2021/06/21 04:52:43;;;;;;;29.02;12.80;;;;;;;20.33;96.69;97112.28;5048105;28;20021;-76
2021/06/21 04:55:10;;;;;;;13.48;5.05;;;;;;;20.38;94.76;97117.25;5031461;28;20030;-77
2021/06/21 04:57:36;;;;;;;9.32;4.72;;;;;;;20.37;93.46;97088.34;5033066;28;20400;-76
2021/06/21 05:00:05;;;;;;;12.98;4.50;;;;;;;20.22;93.99;97114.44;5047993;28;20523;-76
2021/06/21 05:02:31;;;;;;;8.35;5.57;;;;;;;19.98;96.63;97124.22;5047807;28;20040;-76
2021/06/21 05:04:56;;;;;;;11.05;5.18;;;;;;;19.72;99.00;97100.84;5032354;28;20022;-76
2021/06/21 05:07:22;;;;;;;10.98;6.43;;;;;;;19.59;100.00;97097.72;5032152;28;20047;-76
2021/06/21 05:09:48;;;;;;;25.33;14.50;;;;;;;19.88;100.00;97114.47;5047629;28;20037;-76
2021/06/21 05:12:14;;;;;;;14.65;9.40;;;;;;;21.90;88.31;97101.88;5047356;28;20029;-76
2021/06/21 05:14:40;;;;;;;18.67;6.60;;;;;;;24.43;73.73;97114.03;5047480;28;20021;-76
2021/06/21 05:17:08;;;;;;;11.98;5.80;;;;;;;26.74;63.23;97135.75;5030542;28;20026;-75
2021/06/21 05:19:35;;;;;;;9.43;4.80;;;;;;;27.74;55.89;97110.16;5032070;28;20472;-75
2021/06/21 05:22:01;;;;;;;15.57;5.20;;;;;;;28.90;51.76;97121.03;5047596;28;20493;-75
2021/06/21 05:24:26;;;;;;;10.35;4.90;;;;;;;29.85;48.55;97130.97;5031752;28;20033;-76
2021/06/21 05:26:52;;;;;;;20.33;5.63;;;;;;;30.84;46.87;97143.72;5030423;28;20033;-76
2021/06/21 05:29:18;;;;;;;11.70;5.35;;;;;;;32.05;43.55;97152.56;5047072;28;20029;-75
2021/06/21 05:31:44;;;;;;;19.20;5.60;;;;;;;32.92;42.11;97158.97;5030469;28;20397;-75
2021/06/21 05:34:09;;;;;;;11.35;6.70;;;;;;;33.55;40.27;97156.94;5047348;28;20029;-76
2021/06/21 05:36:36;;;;;;;12.77;6.75;;;;;;;34.24;38.54;97169.53;5031555;28;20021;-77
2021/06/21 05:39:02;;;;;;;10.48;6.88;;;;;;;34.35;37.33;97181.66;5046782;28;20390;-76
2021/06/21 05:41:27;;;;;;;12.90;6.22;;;;;;;32.03;41.38;97161.09;5030149;28;20512;-75
2021/06/21 05:43:53;;;;;;;7.45;5.65;;;;;;;33.46;39.37;97161.22;5047045;28;20030;-76
2021/06/21 05:46:18;;;;;;;17.30;5.53;;;;;;;33.43;38.77;97160.88;5046653;28;20029;-77
2021/06/21 05:48:44;;;;;;;8.55;4.80;;;;;;;33.56;38.24;97166.94;5031344;28;20397;-75
2021/06/21 05:51:09;;;;;;;5.90;4.63;;;;;;;34.14;37.03;97157.44;5031645;28;20040;-75
2021/06/21 05:53:35;;;;;;;9.27;3.90;;;;;;;34.66;36.21;97160.75;5031851;28;20026;-76
2021/06/21 05:56:00;;;;;;;10.25;4.38;;;;;;;34.82;36.40;97166.25;5030405;28;20068;-76
2021/06/21 05:58:26;;;;;;;5.82;4.50;;;;;;;34.54;35.91;97163.63;5031566;28;20061;-76
2021/06/21 06:00:52;;;;;;;11.75;7.07;;;;;;;34.92;35.71;97145.25;5031726;28;20033;-77
2021/06/21 06:03:17;;;;;;;12.40;4.32;;;;;;;33.71;36.67;97142.28;5046892;28;20064;-76
2021/06/21 06:05:43;;;;;;;10.90;5.38;;;;;;;34.36;36.44;97138.91;5031412;28;20103;-76
2021/06/21 06:08:08;;;;;;;5.43;3.75;;;;;;;35.11;35.20;97149.41;5031506;28;20033;-76
2021/06/21 06:10:34;;;;;;;4.93;3.15;;;;;;;36.29;33.22;97140.00;5030870;28;20382;-76
2021/06/21 06:13:00;;;;;;;5.18;3.70;;;;;;;35.33;33.84;97127.94;5030926;28;20025;-76
2021/06/21 06:15:25;;;;;;;12.65;7.07;;;;;;;34.37;36.41;97129.47;5029873;28;20063;-76
2021/06/21 06:17:51;;;;;;;8.90;3.60;;;;;;;34.10;37.23;97129.34;5030172;28;20041;-77
2021/06/21 06:20:17;;;;;;;4.25;3.38;;;;;;;34.31;36.48;97136.88;5046785;28;20018;-76
2021/06/21 06:22:43;;;;;;;10.55;3.83;;;;;;;34.71;35.78;97119.13;5029977;28;20040;-76
2021/06/21 06:25:09;;;;;;;20.30;5.68;;;;;;;35.26;35.13;97116.19;5030140;28;20123;-76
2021/06/21 06:27:35;;;;;;;17.15;6.38;;;;;;;36.64;33.06;97117.94;5029988;28;20032;-76
2021/06/21 06:30:02;;;;;;;12.73;4.47;;;;;;;37.81;31.11;97136.75;5029894;28;20120;-75
2021/06/21 06:32:28;;;;;;;10.15;4.20;;;;;;;37.10;31.92;97132.13;5030887;28;20041;-75
2021/06/21 06:34:54;;;;;;;8.15;3.85;;;;;;;36.61;32.77;97138.00;5046692;28;20028;-75
2021/06/21 06:37:20;;;;;;;10.02;4.15;;;;;;;38.07;30.81;97131.19;5030980;28;20080;-75
2021/06/21 06:39:46;;;;;;;19.25;3.67;;;;;;;38.03;31.19;97124.50;5030727;28;20132;-75
2021/06/21 06:42:11;;;;;;;9.38;3.38;;;;;;;36.51;32.88;97129.56;5031204;28;20072;-75
2021/06/21 06:44:37;;;;;;;11.05;4.20;;;;;;;35.75;33.96;97126.16;5046250;28;20029;-76
2021/06/21 06:47:04;;;;;;;12.70;3.80;;;;;;;35.86;34.21;97130.72;5046085;28;20023;-75
2021/06/21 06:49:30;;;;;;;11.98;4.03;;;;;;;36.92;33.42;97136.19;5031023;28;20029;-76
2021/06/21 06:51:56;;;;;;;12.30;4.75;;;;;;;37.73;32.08;97122.50;5046773;28;20399;-76
2021/06/21 06:54:33;;;;;;;12.10;4.38;;;;;;;38.68;30.85;97144.00;5029920;28;20158;-75
2021/06/21 06:57:03;;;;;;;18.20;10.07;;;;;;;39.28;29.78;97140.19;5031194;28;20432;-75
2021/06/21 06:59:31;;;;;;;7.82;5.85;;;;;;;39.11;30.82;97152.81;5045694;28;20039;-77
2021/06/21 07:01:57;;;;;;;9.27;5.07;;;;;;;39.24;29.80;97124.25;5046430;28;20473;-76
2021/06/21 07:04:24;;;;;;;7.72;3.67;;;;;;;38.14;30.86;97120.59;5029631;28;20037;-76
2021/06/21 07:06:50;;;;;;;7.82;3.50;;;;;;;38.13;31.05;97118.91;5046127;28;20034;-76
2021/06/21 07:09:15;;;;;;;12.85;4.25;;;;;;;39.12;29.98;97137.72;5046309;28;20095;-75
2021/06/21 07:11:41;;;;;;;5.50;3.15;;;;;;;38.14;30.93;97137.34;5030757;28;20033;-75
2021/06/21 07:14:07;;;;;;;6.50;3.15;;;;;;;37.73;32.12;97133.69;5029970;28;20033;-75
2021/06/21 07:16:34;;;;;;;8.88;3.40;;;;;;;37.10;32.38;97138.53;5046269;28;20109;-77
2021/06/21 07:18:59;;;;;;;8.85;3.85;;;;;;;37.21;31.98;97140.25;5046297;28;20032;-76
2021/06/21 07:21:25;;;;;;;5.22;3.35;;;;;;;36.39;33.45;97131.72;5046168;28;20404;-76
2021/06/21 07:23:51;;;;;;;5.90;3.05;;;;;;;37.08;32.47;97140.75;5049183;28;20060;-75
2021/06/21 07:26:17;;;;;;;10.50;3.30;;;;;;;38.08;31.49;97130.94;5033367;28;20033;-76
2021/06/21 07:28:43;;;;;;;6.10;2.85;;;;;;;39.78;29.61;97133.44;5049393;28;20026;-76
2021/06/21 07:31:09;;;;;;;8.63;3.80;;;;;;;40.75;28.02;97139.91;5050145;28;20029;-76
2021/06/21 07:33:35;;;;;;;2.97;2.70;;;;;;;37.81;30.66;97133.16;5032782;28;20503;-76
2021/06/21 07:36:02;;;;;;;3.83;3.05;;;;;;;36.91;32.53;97146.53;5049613;28;20025;-76
2021/06/21 07:38:28;;;;;;;8.15;3.13;;;;;;;37.70;31.73;97121.13;5032912;28;20034;-76
2021/06/21 07:40:54;;;;;;;7.13;3.10;;;;;;;39.07;30.42;97148.94;5049009;28;20099;-76
2021/06/21 07:43:20;;;;;;;5.95;3.50;;;;;;;39.52;29.40;97137.53;5049361;28;20425;-76
2021/06/21 07:45:47;;;;;;;8.00;2.90;;;;;;;39.49;29.03;97141.75;5049109;28;20041;-76
2021/06/21 07:48:13;;;;;;;3.58;2.92;;;;;;;40.01;28.35;97145.88;5032942;28;20073;-76
2021/06/21 07:50:38;;;;;;;6.10;3.17;;;;;;;39.18;29.80;97129.00;5049438;28;20056;-78
2021/06/21 07:53:06;;;;;;;6.95;3.58;;;;;;;39.39;29.94;97140.97;5032805;28;20025;-76
2021/06/21 07:55:32;;;;;;;7.70;3.92;;;;;;;40.07;30.43;97151.16;5032684;28;20120;-76
2021/06/21 07:57:58;;;;;;;10.30;3.60;;;;;;;40.94;29.47;97149.25;5034109;28;20192;-76
2021/06/21 08:00:24;;;;;;;17.27;3.90;;;;;;;41.90;27.36;97147.94;5049236;28;20476;-76
2021/06/21 08:02:51;;;;;;;8.82;3.80;;;;;;;43.48;25.74;97141.09;5049505;28;20060;-76
2021/06/21 08:05:17;;;;;;;12.30;3.83;;;;;;;43.38;25.98;97155.44;5033960;28;20120;-77
2021/06/21 08:07:42;;;;;;;4.47;2.85;;;;;;;42.74;26.18;97148.78;5049023;28;20521;-76
2021/06/21 08:10:10;;;;;;;6.15;2.85;;;;;;;42.13;25.73;97135.78;5049226;28;20028;-76
2021/06/21 08:12:35;;;;;;;8.27;3.00;;;;;;;42.82;24.83;97136.81;5032391;28;20039;-76
2021/06/21 08:15:01;;;;;;;4.72;2.70;;;;;;;41.32;27.38;97138.06;5049045;28;20099;-76
2021/06/21 08:17:26;;;;;;;4.28;2.88;;;;;;;41.25;26.47;97130.03;5033913;28;20444;-76
2021/06/21 08:19:52;;;;;;;15.02;2.90;;;;;;;42.09;26.30;97137.50;5033246;28;20444;-76
2021/06/21 08:22:21;;;;;;;6.65;2.90;;;;;;;42.85;25.73;97138.16;5032604;28;20167;-77
2021/06/21 08:24:51;;;;;;;5.72;3.13;;;;;;;42.90;24.91;97136.09;5033153;28;20030;-76
2021/06/21 08:27:17;;;;;;;6.22;2.70;;;;;;;41.29;25.57;97124.63;5033439;28;20039;-76
2021/06/21 08:29:43;;;;;;;10.65;3.38;;;;;;;41.96;25.79;97131.84;5031978;28;20101;-76
2021/06/21 08:32:09;;;;;;;3.88;2.60;;;;;;;41.42;26.44;97138.81;5048497;28;20048;-76
2021/06/21 08:34:35;;;;;;;2.83;2.40;;;;;;;42.34;24.81;97127.84;5048033;28;20033;-77
2021/06/21 08:37:01;;;;;;;2.53;2.28;;;;;;;42.35;24.32;97123.03;5048231;28;20033;-76
2021/06/21 08:39:26;;;;;;;6.63;3.72;;;;;;;42.44;22.53;97124.84;5032661;28;20053;-75
2021/06/21 08:41:55;;;;;;;8.77;3.13;;;;;;;42.91;23.53;97137.75;5032816;28;20037;-76
2021/06/21 08:44:20;;;;;;;4.35;3.00;;;;;;;44.01;23.42;97119.56;5031676;28;20075;-76
2021/06/21 08:46:49;;;;;;;2.10;1.95;;;;;;;43.09;22.36;97121.94;5048298;28;20033;-76
2021/06/21 08:49:17;;;;;;;10.10;2.85;;;;;;;43.17;22.56;97113.56;5032069;28;20103;-76
2021/06/21 08:51:43;;;;;;;3.60;2.38;;;;;;;43.44;22.70;97121.16;5048763;28;20056;-77
2021/06/21 08:54:08;;;;;;;4.20;2.22;;;;;;;42.36;22.99;97116.28;5048261;28;20473;-76
2021/06/21 08:56:34;;;;;;;5.10;2.45;;;;;;;42.06;24.07;97124.06;5048211;28;20036;-76
2021/06/21 08:59:05;;;;;;;6.55;2.60;;;;;;;43.38;23.15;97138.53;5032665;28;20044;-76
2021/06/21 09:01:31;;;;;;;3.58;2.08;;;;;;;43.12;23.32;97133.41;5048675;28;20467;-76
2021/06/21 09:03:57;;;;;;;3.63;1.80;;;;;;;42.22;22.79;97118.22;5048147;28;20076;-76
2021/06/21 09:06:23;;;;;;;5.18;2.35;;;;;;;43.25;23.19;97136.53;5048240;28;20068;-76
2021/06/21 09:08:56;;;;;;;4.95;2.15;;;;;;;43.18;22.94;97131.31;5048147;28;20473;-76
2021/06/21 09:11:44;;;;;;;7.28;2.55;;;;;;;40.18;24.88;97123.06;5031419;28;20034;-76
2021/06/21 09:14:25;;;;;;;8.88;3.10;;;;;;;40.20;25.22;97132.03;5025739;28;20068;-76
2021/06/21 09:17:07;;;;;;;9.70;3.80;;;;;;;41.05;24.13;97128.31;5032431;28;20033;-76
2021/06/21 09:20:03;;;;;;;32.65;5.95;;;;;;;41.15;25.20;97127.38;5032351;28;20284;-76
2021/06/21 09:22:40;;;;;;;2.75;2.53;;;;;;;39.29;26.60;97135.41;5032285;28;20029;-76
2021/06/21 09:25:20;;;;;;;8.30;2.55;;;;;;;40.12;26.42;97135.47;5031963;28;20032;-76
2021/06/21 09:28:04;;;;;;;3.45;1.90;;;;;;;40.95;25.85;97136.88;5032160;28;20030;-76
2021/06/21 09:30:31;;;;;;;3.78;2.30;;;;;;;41.98;23.58;97124.78;5032453;28;20091;-76
2021/06/21 09:32:59;;;;;;;2.83;2.00;;;;;;;42.69;22.41;97120.75;5047366;28;20060;-76
2021/06/21 09:35:27;;;;;;;11.38;4.95;;;;;;;42.59;23.68;97137.81;5047800;28;20080;-77
2021/06/21 09:37:53;;;;;;;17.42;6.70;;;;;;;42.97;25.29;97153.44;5047074;28;20033;-76
2021/06/21 09:40:30;;;;;;;10.27;7.97;;;;;;;43.56;24.46;97154.47;5047625;28;20042;-76
2021/06/21 09:42:57;;;;;;;8.55;3.63;;;;;;;43.70;22.69;97127.88;5047090;28;20140;-77
2021/06/21 09:45:23;;;;;;;9.77;5.40;;;;;;;44.30;22.73;97138.06;5046877;28;20033;-76
2021/06/21 09:47:49;;;;;;;8.57;3.25;;;;;;;44.62;22.06;97143.41;5046829;28;20029;-76
2021/06/21 09:50:15;;;;;;;4.40;2.20;;;;;;;43.66;23.32;97138.13;5046869;28;20033;-76
2021/06/21 09:53:04;;;;;;;4.10;2.60;;;;;;;43.19;23.95;97139.44;5031533;28;20079;-75
2021/06/21 09:55:38;;;;;;;2.88;2.55;;;;;;;43.38;24.11;97130.88;5026419;28;20033;-76
2021/06/21 09:58:11;;;;;;;8.77;2.20;;;;;;;44.00;22.27;97122.69;5047070;28;20021;-76
2021/06/21 10:00:47;;;;;;;2.35;2.15;;;;;;;41.98;24.27;97107.91;5047163;28;20032;-76
2021/06/21 10:03:14;;;;;;;8.20;2.20;;;;;;;42.47;23.59;97131.81;5030006;28;20497;-75
2021/06/21 10:05:45;;;;;;;6.97;2.30;;;;;;;42.77;24.71;97114.38;5031456;28;20029;-77
2021/06/21 10:08:13;;;;;;;4.28;2.22;;;;;;;43.44;24.68;97142.91;5046796;28;20113;-76
2021/06/21 10:10:40;;;;;;;4.30;2.00;;;;;;;43.26;24.02;97124.91;5030331;28;20029;-77
2021/06/21 10:13:06;;;;;;;5.20;2.83;;;;;;;42.14;25.48;97126.19;5046489;28;20167;-76
2021/06/21 10:15:32;;;;;;;7.13;3.45;;;;;;;41.74;25.65;97132.44;5046756;28;20104;-76
2021/06/21 10:17:58;;;;;;;6.10;2.20;;;;;;;41.58;24.76;97114.97;5046684;28;20509;-76
2021/06/21 10:20:23;;;;;;;4.30;1.80;;;;;;;42.01;24.20;97131.75;5031538;28;20159;-76
2021/06/21 10:22:49;;;;;;;4.70;3.10;;;;;;;40.97;25.74;97126.19;5030399;28;20420;-76
2021/06/21 10:25:15;;;;;;;2.50;2.30;;;;;;;38.94;27.87;97133.59;5046315;28;20033;-76
2021/06/21 10:27:46;;;;;;;3.05;2.13;;;;;;;37.21;30.58;97120.72;5046962;28;20022;-75
2021/06/21 10:30:14;;;;;;;16.73;2.60;;;;;;;35.99;31.53;97126.66;5046884;28;20065;-75
2021/06/21 10:32:40;;;;;;;104.70;9.27;;;;;;;34.90;33.77;97148.28;5046908;28;20044;-75
2021/06/21 10:35:08;;;;;;;45.53;7.07;;;;;;;34.01;36.13;97113.31;5030034;28;20112;-76
2021/06/21 10:37:36;;;;;;;91.93;8.90;;;;;;;34.88;35.26;97152.44;5046788;28;20048;-74
2021/06/21 10:40:08;;;;;;;156.52;13.93;;;;;;;36.75;32.90;97133.63;5046028;28;20488;-75
2021/06/21 10:42:37;;;;;;;21.88;3.63;;;;;;;38.61;29.28;97121.06;5047030;28;20030;-75
2021/06/21 10:45:05;;;;;;;31.35;5.50;;;;;;;40.08;27.63;97119.19;5046512;28;20485;-76
2021/06/21 10:47:40;;;;;;;5.50;3.03;;;;;;;41.68;26.60;97114.00;5046844;28;20057;-76
2021/06/21 10:50:20;;;;;;;35.60;5.35;;;;;;;43.05;25.88;97121.72;5029925;28;20032;-76
2021/06/21 10:52:48;;;;;;;5.22;2.22;;;;;;;43.88;23.25;97117.63;5031261;28;20029;-77
2021/06/21 10:55:20;;;;;;;35.00;4.50;;;;;;;44.37;22.67;97111.03;5046223;28;20030;-75
2021/06/21 10:57:47;;;;;;;16.38;3.22;;;;;;;44.54;22.20;97107.50;5048287;28;20032;-76
2021/06/21 11:00:14;;;;;;;3.55;2.40;;;;;;;43.72;22.23;97117.13;5050561;28;20017;-75
2021/06/21 11:02:40;;;;;;;18.85;2.53;;;;;;;44.29;21.68;97099.69;5050953;28;20100;-75
2021/06/21 11:05:05;;;;;;;5.85;2.45;;;;;;;43.61;22.54;97106.41;5033534;28;20090;-76
2021/06/21 11:07:32;;;;;;;8.07;2.17;;;;;;;41.16;25.49;97106.59;5050253;28;20052;-75
2021/06/21 11:09:58;;;;;;;4.00;2.10;;;;;;;39.49;28.24;97115.69;5049905;28;20025;-75
2021/06/21 11:12:30;;;;;;;8.27;2.13;;;;;;;38.11;30.00;97115.56;5033589;28;20065;-75
2021/06/21 11:15:22;;;;;;;2.40;2.20;;;;;;;37.06;31.07;97109.50;5034714;28;20099;-75
2021/06/21 11:17:52;;;;;;;2.38;2.17;;;;;;;36.99;31.11;97108.06;5046820;28;20041;-75
2021/06/21 11:20:44;;;;;;;4.00;2.10;;;;;;;37.07;31.55;97102.78;5034113;28;20029;-75
2021/06/21 11:23:11;;;;;;;;;;;;;;;37.18;31.54;97098.09;5034958;28;20034;-75
2021/06/21 11:25:41;;;;;;;6.00;2.50;;;;;;;37.43;32.10;97098.16;5049927;28;20261;-76
2021/06/21 11:28:37;;;;;;;3.07;2.10;;;;;;;37.73;31.97;97092.63;5049563;28;20032;-75